Weather at Selawik Airport

Public forecast

Using degrees Fahrenheit for public forecast. Weather courtesy of forecast.io.

Current aviation weather report (METAR) for Selawik Airport

Retrieved 2021/10/23 18:56 UTC (47 minutes ago):

PASK 231856Z AUTO 27003KT 10SM OVC085 M02/M04 A2920 RMK AO2 SLP885 T10221044 FZRANO

Closest aviation forecast (TAF) to Selawik Airport

Closest forecast is Ralph Wien Memorial Airport, 64.3 nm (119.0 km) WNW. Retrieved 2021/10/23 18:30 UTC (1 hour ago):

TAF PAOT 231729Z 2318/2418 04003KT P6SM FEW050 BKN100 BKN200 FM240600 11005KT P6SM VCSH BKN030 OVC060 FM241200 12005KT 6SM -SN OVC015